createdAt,value
2022-10-19T00:02:11.145Z,102665.84
2022-10-19T00:04:37.498Z,102673.44
2022-10-19T00:07:03.893Z,102681.59
2022-10-19T00:09:30.271Z,102668.75
2022-10-19T00:11:56.663Z,102670.66
2022-10-19T00:14:23.816Z,102673.06
2022-10-19T00:16:52.471Z,102677.41
2022-10-19T00:19:26.217Z,102672.34
2022-10-19T00:21:55.392Z,102673.38
2022-10-19T00:24:21.847Z,102676.84
2022-10-19T00:26:48.425Z,102680.41
2022-10-19T00:29:15.382Z,102675.78
2022-10-19T00:31:42.418Z,102690.16
2022-10-19T00:34:08.900Z,102690.38
2022-10-19T00:36:39.362Z,102698.91
2022-10-19T00:39:08.423Z,102693.69
2022-10-19T00:41:36.375Z,102691.41
2022-10-19T00:44:27.639Z,102687.53
2022-10-19T00:46:57.671Z,102695.00
2022-10-19T00:49:28.625Z,102696.28
2022-10-19T00:52:07.511Z,102696.41
2022-10-19T00:54:37.300Z,102696.44
2022-10-19T00:57:05.233Z,102689.94
2022-10-19T00:59:32.421Z,102697.38
2022-10-19T01:02:00.775Z,102696.72
2022-10-19T01:04:28.926Z,102689.19
2022-10-19T01:06:56.984Z,102693.09
2022-10-19T01:09:23.373Z,102696.22
2022-10-19T01:11:58.712Z,102699.31
2022-10-19T01:14:54.720Z,102692.22
2022-10-19T01:17:47.653Z,102694.13
2022-10-19T01:20:49.887Z,102697.28
2022-10-19T01:23:38.254Z,102697.78
2022-10-19T01:26:24.985Z,102688.50
2022-10-19T01:29:10.103Z,102698.28
2022-10-19T01:31:54.009Z,102696.00
2022-10-19T01:34:33.072Z,102700.38
2022-10-19T01:37:18.240Z,102700.44
2022-10-19T01:40:03.210Z,102700.25
2022-10-19T01:42:37.398Z,102700.50
2022-10-19T01:45:13.813Z,102705.19
2022-10-19T01:47:48.306Z,102712.56
2022-10-19T01:50:20.948Z,102708.25
2022-10-19T01:52:49.817Z,102704.81
2022-10-19T01:55:18.054Z,102707.50
2022-10-19T01:57:52.466Z,102706.59
2022-10-19T02:00:21.784Z,102706.13
2022-10-19T02:02:50.925Z,102704.56
2022-10-19T02:05:20.352Z,102697.56
2022-10-19T02:07:54.689Z,102697.31
2022-10-19T02:10:21.825Z,102696.03
2022-10-19T02:12:49.574Z,102703.44
2022-10-19T02:15:19.408Z,102691.06
2022-10-19T02:17:49.161Z,102684.97
2022-10-19T02:20:16.580Z,102689.75
2022-10-19T02:22:43.546Z,102691.31
2022-10-19T02:25:11.519Z,102694.19
2022-10-19T02:27:43.233Z,102699.00
2022-10-19T02:30:16.863Z,102695.84
2022-10-19T02:32:44.277Z,102689.69
2022-10-19T02:35:12.999Z,102694.59
2022-10-19T02:37:40.452Z,102692.34
2022-10-19T02:40:07.986Z,102701.38
2022-10-19T02:42:57.833Z,102696.41
2022-10-19T02:45:30.895Z,102697.72
2022-10-19T02:48:04.947Z,102692.22
2022-10-19T02:50:31.585Z,102696.69
2022-10-19T02:53:00.969Z,102698.50
2022-10-19T02:55:29.982Z,102692.97
2022-10-19T02:57:57.391Z,102692.97
2022-10-19T03:00:23.731Z,102695.97
2022-10-19T03:02:50.125Z,102694.25
2022-10-19T03:05:16.490Z,102703.84
2022-10-19T03:07:43.358Z,102706.47
2022-10-19T03:10:10.052Z,102711.59
2022-10-19T03:12:36.431Z,102714.59
2022-10-19T03:15:02.872Z,102714.72
2022-10-19T03:17:29.515Z,102712.66
2022-10-19T03:19:55.850Z,102714.00
2022-10-19T03:22:22.260Z,102705.56
2022-10-19T03:24:48.630Z,102709.47
2022-10-19T03:27:15.090Z,102718.31
2022-10-19T03:29:41.429Z,102722.34
2022-10-19T03:32:07.846Z,102725.19
2022-10-19T03:34:34.188Z,102727.19
2022-10-19T03:37:00.622Z,102719.34
2022-10-19T03:39:26.992Z,102725.28
2022-10-19T03:41:53.448Z,102733.59
2022-10-19T03:44:19.970Z,102735.94
2022-10-19T03:46:46.351Z,102732.16
2022-10-19T03:49:12.793Z,102735.22
2022-10-19T03:51:39.245Z,102732.50
2022-10-19T03:54:13.286Z,102734.97
2022-10-19T03:56:39.646Z,102730.03
2022-10-19T03:59:06.934Z,102745.19
2022-10-19T04:01:36.774Z,102734.41
2022-10-19T04:04:07.410Z,102735.84
2022-10-19T04:06:36.983Z,102747.25
2022-10-19T04:09:05.158Z,102740.34
2022-10-19T04:11:33.469Z,102745.91
2022-10-19T04:14:00.509Z,102748.59
2022-10-19T04:16:29.562Z,102753.69
2022-10-19T04:18:56.691Z,102758.41
2022-10-19T04:21:31.866Z,102754.44
2022-10-19T04:24:02.317Z,102756.06
2022-10-19T04:26:29.363Z,102754.94
2022-10-19T04:28:59.808Z,102759.41
2022-10-19T04:31:27.911Z,102762.81
2022-10-19T04:33:54.661Z,102770.34
2022-10-19T04:36:21.631Z,102771.44
2022-10-19T04:38:47.964Z,102771.63
2022-10-19T04:41:17.064Z,102768.34
2022-10-19T04:43:46.874Z,102764.47
2022-10-19T04:46:18.176Z,102765.22
2022-10-19T04:48:46.422Z,102766.25
2022-10-19T04:51:14.240Z,102758.34
2022-10-19T04:53:42.233Z,102763.59
2022-10-19T04:56:15.547Z,102772.94
2022-10-19T04:58:42.444Z,102768.75
2022-10-19T05:01:21.173Z,102773.00
2022-10-19T05:03:48.145Z,102770.97
2022-10-19T05:06:15.377Z,102773.34
2022-10-19T05:08:42.158Z,102766.53
2022-10-19T05:11:14.431Z,102769.59
2022-10-19T05:13:42.391Z,102764.41
2022-10-19T05:16:12.626Z,102766.59
2022-10-19T05:18:39.796Z,102769.13
2022-10-19T05:21:06.279Z,102776.72
2022-10-19T05:26:14.126Z,102769.72
2022-10-19T05:28:40.580Z,102775.28
2022-10-19T05:31:15.461Z,102772.03
2022-10-19T05:33:42.576Z,102769.41
2022-10-19T05:36:12.012Z,102768.25
2022-10-19T05:38:38.342Z,102765.78
2022-10-19T05:41:04.873Z,102762.25
2022-10-19T05:43:31.195Z,102763.09
2022-10-19T05:45:57.557Z,102764.78
2022-10-19T05:48:23.970Z,102767.13
2022-10-19T05:50:54.901Z,102762.44
2022-10-19T05:53:21.331Z,102770.13
2022-10-19T05:55:47.703Z,102771.06
2022-10-19T05:58:14.663Z,102763.66
2022-10-19T06:00:41.028Z,102767.16
2022-10-19T06:03:07.381Z,102762.00
2022-10-19T06:05:36.447Z,102762.72
2022-10-19T06:08:02.854Z,102764.47
2022-10-19T06:10:29.652Z,102767.75
2022-10-19T06:12:55.976Z,102769.94
2022-10-19T06:15:22.344Z,102769.22
2022-10-19T06:17:48.677Z,102770.41
2022-10-19T06:20:15.056Z,102764.13
2022-10-19T06:22:42.679Z,102758.78
2022-10-19T06:25:09.245Z,102760.06
2022-10-19T06:27:35.937Z,102768.63
2022-10-19T06:30:02.916Z,102763.72
2022-10-19T06:32:29.323Z,102771.88
2022-10-19T06:34:56.714Z,102763.81
2022-10-19T06:37:23.278Z,102769.56
2022-10-19T06:39:49.651Z,102773.75
2022-10-19T06:42:16.344Z,102774.72
2022-10-19T06:44:42.686Z,102770.91
2022-10-19T06:47:09.074Z,102761.13
2022-10-19T06:49:35.925Z,102765.38
2022-10-19T06:52:02.757Z,102776.59
2022-10-19T06:54:29.389Z,102781.13
2022-10-19T06:56:56.138Z,102778.22
2022-10-19T06:59:22.837Z,102773.88
2022-10-19T07:01:49.269Z,102784.31
2022-10-19T07:04:15.618Z,102783.31
2022-10-19T07:06:42.392Z,102782.34
2022-10-19T07:09:08.741Z,102783.91
2022-10-19T07:11:35.123Z,102800.88
2022-10-19T07:14:01.511Z,102795.16
2022-10-19T07:16:28.338Z,102803.34
2022-10-19T07:18:54.694Z,102797.06
2022-10-19T07:21:23.257Z,102801.19
2022-10-19T07:23:49.899Z,102813.47
2022-10-19T07:26:21.238Z,102820.38
2022-10-19T07:28:48.962Z,102815.91
2022-10-19T07:31:17.929Z,102820.41
2022-10-19T07:33:45.029Z,102827.16
2022-10-19T07:36:13.588Z,102826.84
2022-10-19T07:38:40.829Z,102826.84
2022-10-19T07:41:11.018Z,102825.34
2022-10-19T07:43:37.415Z,102834.06
2022-10-19T07:46:18.320Z,102838.13
2022-10-19T07:48:45.251Z,102834.38
2022-10-19T07:51:13.431Z,102828.91
2022-10-19T07:53:40.153Z,102836.41
2022-10-19T07:56:09.409Z,102831.56
2022-10-19T07:58:36.679Z,102822.59
2022-10-19T08:01:06.108Z,102815.81
2022-10-19T08:06:21.359Z,102835.47
2022-10-19T08:08:48.959Z,102832.88
2022-10-19T08:11:27.806Z,102838.66
2022-10-19T08:13:55.176Z,102835.53
2022-10-19T08:16:32.767Z,102844.88
2022-10-19T08:19:07.466Z,102834.66
2022-10-19T08:21:34.265Z,102838.19
2022-10-19T08:24:00.762Z,102839.16
2022-10-19T08:26:32.823Z,102842.31
2022-10-19T08:29:03.801Z,102844.97
2022-10-19T08:31:30.267Z,102849.59
2022-10-19T08:33:56.967Z,102846.81
2022-10-19T08:36:23.592Z,102846.34
2022-10-19T08:38:50.738Z,102852.00
2022-10-19T08:41:26.644Z,102851.56
2022-10-19T08:44:23.987Z,102862.47
2022-10-19T08:47:05.198Z,102864.09
2022-10-19T08:49:34.114Z,102863.06
2022-10-19T08:52:18.788Z,102855.91
2022-10-19T08:54:57.158Z,102859.75
2022-10-19T08:57:31.281Z,102854.09
2022-10-19T09:00:07.545Z,102866.16
2022-10-19T09:02:55.460Z,102863.56
2022-10-19T09:05:38.816Z,102862.34
2022-10-19T09:08:05.175Z,102859.38
2022-10-19T09:10:39.216Z,102861.06
2022-10-19T09:13:11.030Z,102855.81
2022-10-19T09:15:49.484Z,102862.59
2022-10-19T09:18:19.655Z,102871.66
2022-10-19T09:20:49.314Z,102866.63
2022-10-19T09:23:39.371Z,102869.41
2022-10-19T09:26:21.859Z,102868.44
2022-10-19T09:29:10.538Z,102876.03
2022-10-19T09:31:43.320Z,102871.44
2022-10-19T09:34:23.291Z,102873.47
2022-10-19T09:36:53.597Z,102876.41
2022-10-19T09:39:20.279Z,102871.34
2022-10-19T09:41:51.134Z,102865.56
2022-10-19T09:44:18.544Z,102866.47
2022-10-19T09:47:07.160Z,102869.09
2022-10-19T09:49:47.891Z,102872.94
2022-10-19T09:52:40.176Z,102870.47
2022-10-19T09:55:20.295Z,102870.75
2022-10-19T09:57:49.406Z,102880.19
2022-10-19T10:00:21.618Z,102873.19
2022-10-19T10:02:53.470Z,102872.41
2022-10-19T10:05:31.389Z,102872.00
2022-10-19T10:07:57.949Z,102872.91
2022-10-19T10:10:30.599Z,102873.38
2022-10-19T10:13:00.916Z,102870.25
2022-10-19T10:15:42.576Z,102867.16
2022-10-19T10:18:14.157Z,102866.75
2022-10-19T10:23:26.375Z,102864.22
2022-10-19T10:25:57.083Z,102867.16
2022-10-19T10:28:27.487Z,102870.41
2022-10-19T10:31:00.273Z,102867.41
2022-10-19T10:33:45.614Z,102867.19
2022-10-19T10:36:12.822Z,102867.81
2022-10-19T10:38:45.080Z,102867.06
2022-10-19T10:41:17.905Z,102869.88
2022-10-19T10:44:00.752Z,102874.16
2022-10-19T10:46:37.328Z,102859.34
2022-10-19T10:49:15.073Z,102863.59
2022-10-19T10:51:49.207Z,102857.06
2022-10-19T10:54:31.244Z,102859.25
2022-10-19T10:57:15.629Z,102853.16
2022-10-19T10:59:54.075Z,102854.72
2022-10-19T11:02:54.608Z,102859.50
2022-10-19T11:05:34.501Z,102852.75
2022-10-19T11:08:22.512Z,102843.66
2022-10-19T11:10:54.088Z,102840.41
2022-10-19T11:13:33.915Z,102840.84
2022-10-19T11:16:14.129Z,102846.22
2022-10-19T11:18:47.982Z,102838.47
2022-10-19T11:21:24.545Z,102840.88
2022-10-19T11:24:13.441Z,102838.41
2022-10-19T11:26:52.720Z,102840.50
2022-10-19T11:29:30.839Z,102836.75
2022-10-19T11:31:57.423Z,102839.81
2022-10-19T11:34:50.141Z,102837.88
2022-10-19T11:37:27.613Z,102832.75
2022-10-19T11:40:22.563Z,102832.63
2022-10-19T11:43:04.751Z,102820.81
2022-10-19T11:45:47.291Z,102809.00
2022-10-19T11:48:33.358Z,102807.19
2022-10-19T11:51:20.933Z,102792.91
2022-10-19T11:53:57.362Z,102786.19
2022-10-19T11:57:02.905Z,102786.59
2022-10-19T11:59:39.537Z,102783.59
2022-10-19T12:02:43.868Z,102786.50
2022-10-19T12:05:16.484Z,102784.25
2022-10-19T12:07:55.408Z,102776.13
2022-10-19T12:10:28.792Z,102770.97
2022-10-19T12:13:02.621Z,102771.66
2022-10-19T12:15:31.678Z,102771.94
2022-10-19T12:18:12.376Z,102765.84
2022-10-19T12:20:45.912Z,102775.63
2022-10-19T12:23:33.326Z,102768.19
2022-10-19T12:26:03.377Z,102769.41
2022-10-19T12:28:32.931Z,102771.47
2022-10-19T12:31:01.876Z,102761.91
2022-10-19T12:33:47.297Z,102759.25
2022-10-19T12:36:24.342Z,102757.75
2022-10-19T12:39:01.262Z,102761.66
2022-10-19T12:41:45.909Z,102759.19
2022-10-19T12:44:36.151Z,102763.22
2022-10-19T12:47:15.562Z,102755.88
2022-10-19T12:49:48.758Z,102752.81
2022-10-19T12:52:33.812Z,102747.75
2022-10-19T12:55:15.649Z,102749.31
2022-10-19T12:57:57.645Z,102746.34
2022-10-19T13:00:26.318Z,102737.75
2022-10-19T13:03:24.025Z,102734.38
2022-10-19T13:06:02.038Z,102737.59
2022-10-19T13:08:32.201Z,102737.03
2022-10-19T13:11:15.090Z,102739.38
2022-10-19T13:13:57.060Z,102747.84
2022-10-19T13:16:29.502Z,102746.03
2022-10-19T13:19:17.976Z,102744.22
2022-10-19T13:21:47.700Z,102730.59
2022-10-19T13:24:25.759Z,102723.06
2022-10-19T13:27:04.299Z,102728.72
2022-10-19T13:29:36.710Z,102725.59
2022-10-19T13:32:32.598Z,102724.13
2022-10-19T13:35:21.420Z,102722.81
2022-10-19T13:38:16.882Z,102719.00
2022-10-19T13:40:49.506Z,102717.69
2022-10-19T13:43:19.723Z,102723.47
2022-10-19T13:46:09.041Z,102729.53
2022-10-19T13:49:06.833Z,102722.09
2022-10-19T13:51:45.901Z,102718.56
2022-10-19T13:54:31.472Z,102720.72
2022-10-19T13:57:19.148Z,102716.88
2022-10-19T13:59:56.135Z,102716.16
2022-10-19T14:02:43.789Z,102710.56
2022-10-19T14:05:35.197Z,102704.97
2022-10-19T14:08:15.420Z,102706.75
2022-10-19T14:11:00.125Z,102700.81
2022-10-19T14:13:27.773Z,102703.94
2022-10-19T14:15:56.791Z,102709.44
2022-10-19T14:18:30.247Z,102707.56
2022-10-19T14:21:05.404Z,102708.69
2022-10-19T14:23:43.002Z,102712.50
2022-10-19T14:26:19.464Z,102709.34
2022-10-19T14:28:55.273Z,102706.81
2022-10-19T14:31:30.618Z,102702.44
2022-10-19T14:34:02.017Z,102708.63
2022-10-19T14:36:36.079Z,102703.94
2022-10-19T14:39:02.757Z,102708.91
2022-10-19T14:41:36.938Z,102702.91
2022-10-19T14:44:30.281Z,102708.78
2022-10-19T14:46:56.879Z,102709.13
2022-10-19T14:49:23.266Z,102694.44
2022-10-19T14:51:54.701Z,102693.44
2022-10-19T14:54:32.595Z,102693.69
2022-10-19T14:57:04.076Z,102689.34
2022-10-19T14:59:37.089Z,102683.75
2022-10-19T15:02:23.100Z,102690.66
2022-10-19T15:04:51.257Z,102683.31
2022-10-19T15:07:28.861Z,102677.97
2022-10-19T15:09:59.411Z,102679.00
2022-10-19T15:12:40.641Z,102674.53
2022-10-19T15:15:16.514Z,102669.72
2022-10-19T15:17:51.424Z,102667.00
2022-10-19T15:20:27.181Z,102658.31
2022-10-19T15:22:53.824Z,102660.00
2022-10-19T15:25:39.494Z,102657.50
2022-10-19T15:28:33.953Z,102663.00
2022-10-19T15:31:27.088Z,102652.72
2022-10-19T15:33:56.086Z,102654.69
2022-10-19T15:36:24.275Z,102655.00
2022-10-19T15:39:11.498Z,102672.47
2022-10-19T15:41:46.570Z,102656.00
2022-10-19T15:44:34.403Z,102659.03
2022-10-19T15:47:15.466Z,102659.31
2022-10-19T15:49:41.763Z,102655.78
2022-10-19T15:52:16.539Z,102657.88
2022-10-19T15:54:42.928Z,102659.31
2022-10-19T15:57:34.290Z,102663.53
2022-10-19T16:00:13.349Z,102661.59
2022-10-19T16:02:40.055Z,102660.09
2022-10-19T16:07:40.445Z,102664.75
2022-10-19T16:10:07.896Z,102657.84
2022-10-19T16:12:34.684Z,102650.94
2022-10-19T16:15:01.076Z,102653.34
2022-10-19T16:17:27.629Z,102653.81
2022-10-19T16:19:53.998Z,102651.72
2022-10-19T16:22:20.452Z,102656.31
2022-10-19T16:24:46.818Z,102667.88
2022-10-19T16:28:43.745Z,102664.56
2022-10-19T16:31:10.596Z,102669.16
2022-10-19T16:33:37.032Z,102662.97
2022-10-19T16:36:05.560Z,102668.28
2022-10-19T16:38:32.074Z,102680.97
2022-10-19T16:41:02.736Z,102679.63
2022-10-19T16:43:29.668Z,102670.22
2022-10-19T16:45:56.700Z,102666.16
2022-10-19T16:48:24.215Z,102662.91
2022-10-19T16:51:05.756Z,102675.16
2022-10-19T16:53:33.103Z,102667.75
2022-10-19T16:56:07.944Z,102676.78
2022-10-19T16:58:36.387Z,102665.00
2022-10-19T17:01:13.703Z,102677.44
2022-10-19T17:03:40.384Z,102670.34
2022-10-19T17:06:07.895Z,102670.66
2022-10-19T17:08:37.302Z,102672.94
2022-10-19T17:11:27.933Z,102672.75
2022-10-19T17:13:56.872Z,102676.41
2022-10-19T17:16:24.438Z,102671.66
2022-10-19T17:18:54.051Z,102672.53
2022-10-19T17:21:22.594Z,102679.16
2022-10-19T17:23:54.064Z,102674.75
2022-10-19T17:26:29.542Z,102674.91
2022-10-19T17:28:56.559Z,102671.25
2022-10-19T17:31:23.724Z,102678.81
2022-10-19T17:33:50.756Z,102678.06
2022-10-19T17:36:20.196Z,102683.16
2022-10-19T17:38:47.311Z,102678.91
2022-10-19T17:41:16.266Z,102674.53
2022-10-19T17:43:43.935Z,102686.47
2022-10-19T17:46:12.616Z,102678.53
2022-10-19T17:48:40.111Z,102681.22
2022-10-19T17:51:10.324Z,102685.66
2022-10-19T17:53:36.692Z,102685.66
2022-10-19T17:56:05.858Z,102687.19
2022-10-19T17:58:36.318Z,102685.72
2022-10-19T18:01:05.839Z,102699.00
2022-10-19T18:03:34.196Z,102691.25
2022-10-19T18:06:13.351Z,102699.13
2022-10-19T18:08:42.532Z,102707.09
2022-10-19T18:11:16.386Z,102704.22
2022-10-19T18:13:43.299Z,102701.25
2022-10-19T18:16:15.696Z,102702.19
2022-10-19T18:18:45.655Z,102700.41
2022-10-19T18:21:15.081Z,102697.50
2022-10-19T18:23:42.187Z,102709.06
2022-10-19T18:26:11.196Z,102704.22
2022-10-19T18:28:37.832Z,102712.75
2022-10-19T18:31:16.203Z,102715.09
2022-10-19T18:33:42.843Z,102716.25
2022-10-19T18:36:10.711Z,102723.13
2022-10-19T18:38:37.922Z,102724.75
2022-10-19T18:41:06.224Z,102730.09
2022-10-19T18:43:32.938Z,102717.66
2022-10-19T18:46:00.311Z,102722.13
2022-10-19T18:48:29.000Z,102714.59
2022-10-19T18:50:56.445Z,102713.59
2022-10-19T18:53:23.445Z,102705.16
2022-10-19T18:55:59.736Z,102700.72
2022-10-19T18:58:26.200Z,102698.66
2022-10-19T19:01:12.315Z,102698.03
2022-10-19T19:03:41.061Z,102693.56
2022-10-19T19:06:13.684Z,102688.00
2022-10-19T19:08:40.614Z,102685.53
2022-10-19T19:11:18.555Z,102677.13
2022-10-19T19:13:50.727Z,102676.38
2022-10-19T19:16:17.595Z,102686.03
2022-10-19T19:18:44.268Z,102677.19
2022-10-19T19:21:22.966Z,102678.63
2022-10-19T19:23:50.750Z,102668.75
2022-10-19T19:26:18.042Z,102670.16
2022-10-19T19:28:47.649Z,102661.59
2022-10-19T19:31:17.999Z,102669.84
2022-10-19T19:33:45.555Z,102661.38
2022-10-19T19:36:13.265Z,102659.53
2022-10-19T19:38:39.683Z,102654.16
2022-10-19T19:41:08.186Z,102658.41
2022-10-19T19:43:37.013Z,102652.50
2022-10-19T19:46:08.916Z,102642.84
2022-10-19T19:48:36.849Z,102643.47
2022-10-19T19:51:03.293Z,102639.03
2022-10-19T19:53:29.745Z,102643.31
2022-10-19T19:55:56.176Z,102634.91
2022-10-19T19:58:22.532Z,102634.06
2022-10-19T20:00:48.853Z,102627.88
2022-10-19T20:03:15.811Z,102621.72
2022-10-19T20:05:42.677Z,102619.66
2022-10-19T20:08:09.517Z,102612.03
2022-10-19T20:10:39.642Z,102606.00
2022-10-19T20:13:06.147Z,102609.22
2022-10-19T20:15:32.519Z,102592.00
2022-10-19T20:17:58.880Z,102601.16
2022-10-19T20:20:25.216Z,102593.53
2022-10-19T20:22:51.620Z,102596.28
2022-10-19T20:25:17.985Z,102600.22
2022-10-19T20:27:44.357Z,102599.56
2022-10-19T20:30:11.218Z,102600.66
2022-10-19T20:32:38.109Z,102601.25
2022-10-19T20:35:04.972Z,102603.16
2022-10-19T20:37:31.438Z,102607.34
2022-10-19T20:39:57.763Z,102607.38
2022-10-19T20:42:24.132Z,102604.25
2022-10-19T20:44:50.524Z,102600.84
2022-10-19T20:47:17.200Z,102603.06
2022-10-19T20:49:43.517Z,102603.69
2022-10-19T20:52:09.855Z,102600.41
2022-10-19T20:54:36.879Z,102588.25
2022-10-19T20:57:03.353Z,102596.50
2022-10-19T20:59:31.406Z,102600.19
2022-10-19T21:01:57.887Z,102596.50
2022-10-19T21:04:25.639Z,102590.25
2022-10-19T21:06:52.651Z,102591.53
2022-10-19T21:09:22.620Z,102591.50
2022-10-19T21:11:50.658Z,102587.88
2022-10-19T21:14:25.297Z,102594.81
2022-10-19T21:16:56.411Z,102581.72
2022-10-19T21:19:25.634Z,102583.84
2022-10-19T21:22:03.276Z,102596.94
2022-10-19T21:24:32.486Z,102584.97
2022-10-19T21:27:05.070Z,102583.22
2022-10-19T21:29:31.534Z,102580.16
2022-10-19T21:31:57.948Z,102583.06
2022-10-19T21:34:26.908Z,102574.31
2022-10-19T21:36:54.157Z,102580.00
2022-10-19T21:39:20.692Z,102573.94
2022-10-19T21:41:47.507Z,102583.56
2022-10-19T21:44:15.458Z,102571.97
2022-10-19T21:46:43.530Z,102562.41
2022-10-19T21:49:12.854Z,102563.78
2022-10-19T21:51:50.594Z,102563.66
2022-10-19T21:54:19.472Z,102558.53
2022-10-19T21:56:46.384Z,102553.53
2022-10-19T21:59:13.704Z,102552.09
2022-10-19T22:01:41.576Z,102560.16
2022-10-19T22:04:16.279Z,102556.34
2022-10-19T22:06:42.891Z,102550.78
2022-10-19T22:09:13.637Z,102554.38
2022-10-19T22:11:40.163Z,102550.44
2022-10-19T22:14:06.592Z,102554.06
2022-10-19T22:16:36.836Z,102556.00
2022-10-19T22:19:04.990Z,102557.81
2022-10-19T22:21:33.553Z,102564.84
2022-10-19T22:24:02.450Z,102549.84
2022-10-19T22:26:31.238Z,102552.81
2022-10-19T22:28:59.176Z,102542.47
2022-10-19T22:31:27.294Z,102540.31
2022-10-19T22:33:53.709Z,102532.78
2022-10-19T22:36:20.112Z,102524.78
2022-10-19T22:38:46.420Z,102513.06
2022-10-19T22:41:12.739Z,102495.09
2022-10-19T22:43:39.078Z,102500.94
2022-10-19T22:46:05.417Z,102489.47
2022-10-19T22:48:32.176Z,102489.34
2022-10-19T22:50:58.510Z,102486.94
2022-10-19T22:53:25.134Z,102479.88
2022-10-19T22:55:51.700Z,102471.25
2022-10-19T22:58:19.228Z,102470.97
2022-10-19T23:00:45.569Z,102486.34
2022-10-19T23:03:11.990Z,102482.19
2022-10-19T23:05:38.330Z,102482.34
2022-10-19T23:08:04.997Z,102485.91
2022-10-19T23:10:32.610Z,102479.00
2022-10-19T23:12:59.005Z,102468.31
2022-10-19T23:15:25.399Z,102467.69
2022-10-19T23:17:52.139Z,102467.00
2022-10-19T23:20:18.470Z,102465.97
2022-10-19T23:22:44.838Z,102467.19
2022-10-19T23:25:11.160Z,102467.72
2022-10-19T23:27:38.219Z,102472.59
2022-10-19T23:30:05.311Z,102479.25
2022-10-19T23:32:31.863Z,102462.94
2022-10-19T23:34:58.226Z,102457.34
2022-10-19T23:37:24.600Z,102461.13
2022-10-19T23:39:51.011Z,102464.84
2022-10-19T23:42:17.656Z,102468.59
2022-10-19T23:44:43.982Z,102481.31
2022-10-19T23:47:10.339Z,102478.34
2022-10-19T23:49:36.702Z,102462.25
2022-10-19T23:52:03.188Z,102451.97
2022-10-19T23:54:29.511Z,102456.44
2022-10-19T23:56:55.980Z,102456.59
2022-10-19T23:59:22.377Z,102460.81
